createdAt,value
2023-05-15T00:01:27.047Z,6.70
2023-05-15T00:03:55.092Z,9.40
2023-05-15T00:06:23.386Z,10.80
2023-05-15T00:08:51.002Z,7.70
2023-05-15T00:11:18.516Z,9.90
2023-05-15T00:13:46.080Z,9.80
2023-05-15T00:16:14.180Z,7.50
2023-05-15T00:18:41.743Z,6.90
2023-05-15T00:21:09.279Z,7.40
2023-05-15T00:23:36.768Z,10.90
2023-05-15T00:26:04.380Z,7.30
2023-05-15T00:28:31.825Z,9.20
2023-05-15T00:30:59.358Z,9.10
2023-05-15T00:33:26.835Z,7.40
2023-05-15T00:35:54.393Z,8.40
2023-05-15T00:38:22.035Z,7.00
2023-05-15T00:40:49.595Z,8.90
2023-05-15T00:43:18.273Z,7.40
2023-05-15T00:45:46.287Z,6.90
2023-05-15T00:48:14.358Z,8.50
2023-05-15T00:50:43.308Z,6.90
2023-05-15T00:53:11.178Z,8.00
2023-05-15T00:55:40.885Z,7.10
2023-05-15T00:58:13.580Z,8.50
2023-05-15T01:00:43.766Z,7.20
2023-05-15T01:03:11.842Z,7.20
2023-05-15T01:05:39.902Z,8.00
2023-05-15T01:08:20.783Z,7.90
2023-05-15T01:10:52.136Z,10.40
2023-05-15T01:13:21.933Z,8.80
2023-05-15T01:15:52.502Z,6.90
2023-05-15T01:18:20.081Z,8.00
2023-05-15T01:21:05.594Z,8.80
2023-05-15T01:23:46.666Z,7.70
2023-05-15T01:26:33.724Z,6.30
2023-05-15T01:29:23.977Z,10.20
2023-05-15T01:32:02.123Z,10.10
2023-05-15T01:34:50.108Z,7.00
2023-05-15T01:37:25.733Z,7.40
2023-05-15T01:40:01.266Z,7.50
2023-05-15T01:42:33.369Z,7.20
2023-05-15T01:45:06.059Z,7.90
2023-05-15T01:47:41.180Z,6.40
2023-05-15T01:50:14.606Z,6.80
2023-05-15T01:52:47.314Z,6.90
2023-05-15T01:55:16.295Z,7.10
2023-05-15T01:57:47.680Z,7.40
2023-05-15T02:00:16.951Z,9.30
2023-05-15T02:02:46.728Z,6.30
2023-05-15T02:05:15.407Z,8.40
2023-05-15T02:07:44.907Z,8.80
2023-05-15T02:10:14.265Z,7.00
2023-05-15T02:12:42.692Z,6.90
2023-05-15T02:15:11.438Z,6.80
2023-05-15T02:17:39.115Z,9.00
2023-05-15T02:20:09.603Z,7.70
2023-05-15T02:22:37.079Z,7.90
2023-05-15T02:25:04.975Z,7.20
2023-05-15T02:27:46.169Z,7.80
2023-05-15T02:30:35.552Z,8.70
2023-05-15T02:33:14.716Z,7.20
2023-05-15T02:35:49.119Z,6.60
2023-05-15T02:38:23.053Z,7.60
2023-05-15T02:40:54.232Z,7.30
2023-05-15T02:43:22.582Z,9.70
2023-05-15T02:45:52.599Z,8.60
2023-05-15T02:48:22.607Z,8.50
2023-05-15T02:50:52.318Z,8.10
2023-05-15T02:53:19.926Z,8.30
2023-05-15T02:55:50.055Z,8.20
2023-05-15T02:58:17.961Z,6.60
2023-05-15T03:00:45.624Z,8.20
2023-05-15T03:03:13.187Z,9.50
2023-05-15T03:05:40.722Z,7.40
2023-05-15T03:08:08.264Z,7.70
2023-05-15T03:10:35.753Z,8.60
2023-05-15T03:13:03.303Z,7.60
2023-05-15T03:15:30.972Z,8.00
2023-05-15T03:17:58.520Z,7.70
2023-05-15T03:20:26.104Z,9.40
2023-05-15T03:22:53.981Z,9.70
2023-05-15T03:25:22.894Z,6.60
2023-05-15T03:27:50.766Z,7.00
2023-05-15T03:30:18.321Z,7.00
2023-05-15T03:32:46.051Z,10.10
2023-05-15T03:35:14.840Z,7.50
2023-05-15T03:37:42.460Z,7.70
2023-05-15T03:40:10.419Z,9.70
2023-05-15T03:42:37.927Z,8.00
2023-05-15T03:45:06.131Z,7.10
2023-05-15T03:47:33.684Z,9.00
2023-05-15T03:50:01.183Z,7.30
2023-05-15T03:52:28.651Z,9.10
2023-05-15T03:54:56.285Z,9.10
2023-05-15T03:57:23.790Z,9.70
2023-05-15T03:59:51.299Z,8.30
2023-05-15T04:02:18.727Z,7.90
2023-05-15T04:04:46.274Z,8.50
2023-05-15T04:07:13.775Z,9.20
2023-05-15T04:09:41.301Z,8.90
2023-05-15T04:12:09.101Z,9.50
2023-05-15T04:14:36.665Z,8.10
2023-05-15T04:17:04.480Z,6.80
2023-05-15T04:19:32.040Z,8.20
2023-05-15T04:21:59.578Z,8.80
2023-05-15T04:24:27.098Z,9.20
2023-05-15T04:26:54.713Z,8.40
2023-05-15T04:29:23.572Z,10.20
2023-05-15T04:31:51.127Z,8.70
2023-05-15T04:34:18.814Z,8.60
2023-05-15T04:36:46.368Z,11.80
2023-05-15T04:39:14.053Z,9.50
2023-05-15T04:41:41.586Z,17.60
2023-05-15T04:44:09.213Z,7.90
2023-05-15T04:46:37.770Z,9.80
2023-05-15T04:49:06.757Z,7.60
2023-05-15T04:51:34.244Z,8.30
2023-05-15T04:54:01.700Z,8.70
2023-05-15T04:56:29.212Z,9.70
2023-05-15T04:58:56.636Z,6.80
2023-05-15T05:01:25.510Z,9.20
2023-05-15T05:03:53.168Z,8.80
2023-05-15T05:06:21.968Z,10.10
2023-05-15T05:08:49.460Z,10.90
2023-05-15T05:11:17.095Z,9.00
2023-05-15T05:13:44.630Z,10.70
2023-05-15T05:16:12.214Z,9.10
2023-05-15T05:18:39.834Z,8.70
2023-05-15T05:21:07.359Z,21.90
2023-05-15T05:23:34.923Z,19.60
2023-05-15T05:26:04.194Z,10.00
2023-05-15T05:28:35.927Z,11.10
2023-05-15T05:31:03.929Z,6.60
2023-05-15T05:33:34.606Z,8.30
2023-05-15T05:36:02.166Z,8.20
2023-05-15T05:38:32.272Z,9.40
2023-05-15T05:41:01.274Z,11.00
2023-05-15T05:43:28.898Z,9.70
2023-05-15T05:45:58.007Z,7.80
2023-05-15T05:48:26.805Z,10.30
2023-05-15T05:50:58.195Z,13.20
2023-05-15T05:53:28.275Z,10.90
2023-05-15T05:55:56.271Z,10.40
2023-05-15T05:58:26.127Z,10.50
2023-05-15T06:00:57.622Z,9.20
2023-05-15T06:03:27.800Z,9.80
2023-05-15T06:05:57.792Z,15.50
2023-05-15T06:08:26.024Z,34.70
2023-05-15T06:10:53.934Z,14.10
2023-05-15T06:13:22.169Z,16.80
2023-05-15T06:15:51.345Z,8.90
2023-05-15T06:18:18.928Z,9.60
2023-05-15T06:20:46.991Z,39.80
2023-05-15T06:23:14.543Z,19.10
2023-05-15T06:25:42.426Z,11.20
2023-05-15T06:28:09.925Z,9.20
2023-05-15T06:30:37.515Z,9.60
2023-05-15T06:33:05.292Z,10.50
2023-05-15T06:35:32.999Z,15.70
2023-05-15T06:38:00.876Z,13.00
2023-05-15T06:40:28.562Z,10.20
2023-05-15T06:42:59.071Z,8.80
2023-05-15T06:45:27.499Z,10.20
2023-05-15T06:47:55.613Z,11.40
2023-05-15T06:50:23.412Z,15.40
2023-05-15T06:52:51.394Z,11.60
2023-05-15T06:55:20.659Z,9.90
2023-05-15T06:57:48.125Z,9.80
2023-05-15T07:00:16.336Z,12.30
2023-05-15T07:02:44.163Z,8.50
2023-05-15T07:05:11.816Z,13.80
2023-05-15T07:07:39.618Z,11.20
2023-05-15T07:10:08.413Z,13.50
2023-05-15T07:12:36.028Z,9.60
2023-05-15T07:15:13.564Z,13.70
2023-05-15T07:17:41.185Z,9.80
2023-05-15T07:20:09.437Z,8.90
2023-05-15T07:22:44.623Z,9.80
2023-05-15T07:25:17.192Z,11.70
2023-05-15T07:27:45.066Z,9.90
2023-05-15T07:30:13.149Z,10.20
2023-05-15T07:32:41.418Z,11.10
2023-05-15T07:35:11.412Z,14.60
2023-05-15T07:37:39.356Z,9.50
2023-05-15T07:40:07.990Z,12.00
2023-05-15T07:42:35.663Z,12.20
2023-05-15T07:45:03.379Z,9.10
2023-05-15T07:47:30.966Z,10.70
2023-05-15T07:49:58.667Z,12.10
2023-05-15T07:52:27.035Z,8.90
2023-05-15T07:54:57.282Z,11.40
2023-05-15T07:57:26.649Z,11.30
2023-05-15T07:59:54.160Z,8.20
2023-05-15T08:02:21.692Z,9.60
2023-05-15T08:04:49.365Z,9.20
2023-05-15T08:07:16.966Z,9.10
2023-05-15T08:09:44.457Z,9.60
2023-05-15T08:12:23.412Z,10.40
2023-05-15T08:14:53.281Z,10.40
2023-05-15T08:17:21.905Z,9.00
2023-05-15T08:19:49.694Z,10.20
2023-05-15T08:22:17.930Z,10.80
2023-05-15T08:24:45.655Z,9.70
2023-05-15T08:27:13.595Z,10.50
2023-05-15T08:29:41.586Z,10.30
2023-05-15T08:32:10.248Z,9.20
2023-05-15T08:34:38.508Z,11.60
2023-05-15T08:37:06.882Z,11.50
2023-05-15T08:39:34.531Z,11.80
2023-05-15T08:42:18.076Z,10.40
2023-05-15T08:44:46.291Z,9.80
2023-05-15T08:47:15.629Z,10.60
2023-05-15T08:50:05.514Z,9.10
2023-05-15T08:52:34.061Z,8.90
2023-05-15T08:55:02.638Z,9.40
2023-05-15T08:57:32.047Z,10.10
2023-05-15T09:00:01.303Z,10.50
2023-05-15T09:02:29.486Z,9.40
2023-05-15T09:04:57.056Z,12.40
2023-05-15T09:07:25.464Z,10.60
2023-05-15T09:09:54.422Z,10.60
2023-05-15T09:12:25.281Z,12.30
2023-05-15T09:15:12.298Z,10.20
2023-05-15T09:17:40.781Z,10.10
2023-05-15T09:20:25.688Z,11.70
2023-05-15T09:22:53.610Z,10.30
2023-05-15T09:25:38.364Z,10.80
2023-05-15T09:28:25.285Z,8.20
2023-05-15T09:30:58.158Z,10.30
2023-05-15T09:33:35.141Z,9.70
2023-05-15T09:36:04.835Z,13.50
2023-05-15T09:38:34.385Z,11.70
2023-05-15T09:41:04.396Z,10.50
2023-05-15T09:43:37.826Z,13.50
2023-05-15T09:46:06.938Z,12.10
2023-05-15T09:48:35.931Z,10.30
2023-05-15T09:51:07.791Z,11.60
2023-05-15T09:53:35.614Z,9.90
2023-05-15T09:56:03.427Z,9.80
2023-05-15T09:58:32.153Z,10.30
2023-05-15T10:01:01.380Z,10.30
2023-05-15T10:03:29.155Z,9.40
2023-05-15T10:06:02.144Z,11.80
2023-05-15T10:08:30.067Z,10.10
2023-05-15T10:11:01.114Z,10.50
2023-05-15T10:13:34.324Z,17.40
2023-05-15T10:16:05.198Z,12.90
2023-05-15T10:18:35.912Z,9.70
2023-05-15T10:21:04.718Z,9.90
2023-05-15T10:23:36.404Z,9.20
2023-05-15T10:26:14.259Z,11.80
2023-05-15T10:28:45.711Z,14.40
2023-05-15T10:31:14.374Z,13.50
2023-05-15T10:33:43.605Z,12.10
2023-05-15T10:36:11.700Z,10.10
2023-05-15T10:38:40.364Z,10.20
2023-05-15T10:41:17.780Z,11.40
2023-05-15T10:43:46.410Z,13.50
2023-05-15T10:46:15.767Z,11.60
2023-05-15T10:48:43.763Z,10.60
2023-05-15T10:51:19.152Z,10.90
2023-05-15T10:53:46.985Z,11.50
2023-05-15T10:56:19.230Z,10.20
2023-05-15T10:58:52.553Z,10.90
2023-05-15T11:01:40.018Z,9.80
2023-05-15T11:04:19.558Z,10.10
2023-05-15T11:06:49.982Z,10.20
2023-05-15T11:09:34.496Z,10.20
2023-05-15T11:12:07.043Z,11.40
2023-05-15T11:14:40.979Z,10.70
2023-05-15T11:17:16.602Z,9.60
2023-05-15T11:19:50.831Z,11.60
2023-05-15T11:22:34.314Z,9.00
2023-05-15T11:25:14.155Z,9.50
2023-05-15T11:27:46.159Z,7.70
2023-05-15T11:30:35.975Z,7.60
2023-05-15T11:33:20.424Z,9.00
2023-05-15T11:35:48.409Z,13.80
2023-05-15T11:38:20.094Z,11.00
2023-05-15T11:40:56.586Z,11.70
2023-05-15T11:43:25.488Z,11.50
2023-05-15T11:45:58.152Z,9.20
2023-05-15T11:48:31.695Z,13.90
2023-05-15T11:51:02.217Z,11.80
2023-05-15T11:53:31.050Z,8.80
2023-05-15T11:55:59.220Z,11.50
2023-05-15T11:58:26.864Z,9.20
2023-05-15T12:00:54.910Z,9.30
2023-05-15T12:03:32.334Z,11.40
2023-05-15T12:06:02.393Z,11.30
2023-05-15T12:08:34.941Z,8.60
2023-05-15T12:11:03.731Z,12.90
2023-05-15T12:13:32.960Z,12.90
2023-05-15T12:16:03.464Z,9.70
2023-05-15T12:18:32.503Z,9.20
2023-05-15T12:21:00.902Z,11.10
2023-05-15T12:23:28.954Z,12.20
2023-05-15T12:26:03.342Z,10.60
2023-05-15T12:28:34.347Z,14.00
2023-05-15T12:31:02.703Z,12.30
2023-05-15T12:33:30.537Z,13.80
2023-05-15T12:36:01.244Z,11.70
2023-05-15T12:38:30.482Z,13.20
2023-05-15T12:40:58.447Z,21.60
2023-05-15T12:43:30.859Z,15.40
2023-05-15T12:45:58.562Z,11.10
2023-05-15T12:48:32.241Z,13.40
2023-05-15T12:51:08.003Z,13.40
2023-05-15T12:53:36.080Z,12.60
2023-05-15T12:56:04.814Z,11.50
2023-05-15T12:58:33.816Z,9.60
2023-05-15T13:01:04.704Z,9.90
2023-05-15T13:03:33.983Z,13.50
2023-05-15T13:06:09.765Z,11.90
2023-05-15T13:08:41.842Z,9.40
2023-05-15T13:11:14.524Z,9.40
2023-05-15T13:13:45.003Z,11.30
2023-05-15T13:16:24.462Z,11.50
2023-05-15T13:18:52.892Z,11.20
2023-05-15T13:21:20.571Z,9.70
2023-05-15T13:23:48.798Z,11.00
2023-05-15T13:26:16.534Z,12.10
2023-05-15T13:28:49.373Z,12.60
2023-05-15T13:31:30.942Z,22.60
2023-05-15T13:33:58.586Z,17.00
2023-05-15T13:36:26.171Z,15.30
2023-05-15T13:38:53.685Z,13.30
2023-05-15T13:41:21.276Z,14.00
2023-05-15T13:43:49.448Z,14.70
2023-05-15T13:46:17.084Z,17.90
2023-05-15T13:48:44.818Z,13.30
2023-05-15T13:51:12.309Z,12.50
2023-05-15T13:53:39.864Z,15.60
2023-05-15T13:56:07.632Z,12.30
2023-05-15T13:58:35.334Z,13.00
2023-05-15T14:01:07.105Z,19.10
2023-05-15T14:03:34.885Z,12.60
2023-05-15T14:06:03.927Z,12.60
2023-05-15T14:08:31.532Z,11.70
2023-05-15T14:10:59.191Z,11.80
2023-05-15T14:13:26.686Z,9.30
2023-05-15T14:15:54.919Z,10.70
2023-05-15T14:18:22.480Z,9.70
2023-05-15T14:20:49.998Z,8.40
2023-05-15T14:23:17.566Z,13.00
2023-05-15T14:25:45.046Z,9.00
2023-05-15T14:28:13.019Z,9.90
2023-05-15T14:30:40.561Z,9.90
2023-05-15T14:33:08.183Z,9.10
2023-05-15T14:35:36.003Z,10.10
2023-05-15T14:38:04.526Z,8.70
2023-05-15T14:40:32.041Z,9.20
2023-05-15T14:42:59.538Z,11.30
2023-05-15T14:45:27.191Z,8.90
2023-05-15T14:47:54.816Z,11.00
2023-05-15T14:50:22.284Z,9.80
2023-05-15T14:52:49.805Z,8.00
2023-05-15T14:55:22.658Z,9.30
2023-05-15T14:57:50.249Z,14.60
2023-05-15T15:00:17.977Z,10.40
2023-05-15T15:02:46.441Z,9.80
2023-05-15T15:05:17.499Z,8.60
2023-05-15T15:08:05.136Z,9.50
2023-05-15T15:10:35.085Z,9.60
2023-05-15T15:13:04.025Z,9.30
2023-05-15T15:15:34.287Z,9.50
2023-05-15T15:18:02.288Z,9.60
2023-05-15T15:20:30.040Z,10.70
2023-05-15T15:22:57.768Z,12.10
2023-05-15T15:25:25.528Z,9.10
2023-05-15T15:27:53.230Z,8.20
2023-05-15T15:30:22.274Z,15.90
2023-05-15T15:32:49.876Z,10.60
2023-05-15T15:35:17.684Z,12.50
2023-05-15T15:37:45.250Z,9.20
2023-05-15T15:40:12.883Z,9.20
2023-05-15T15:42:40.513Z,9.10
2023-05-15T15:45:08.552Z,10.80
2023-05-15T15:47:36.701Z,12.40
2023-05-15T15:50:04.586Z,14.20
2023-05-15T15:52:32.132Z,11.40
2023-05-15T15:54:59.657Z,12.60
2023-05-15T15:57:29.624Z,10.90
2023-05-15T15:59:57.288Z,13.20
2023-05-15T16:02:24.940Z,11.30
2023-05-15T16:04:52.690Z,19.90
2023-05-15T16:07:20.687Z,15.90
2023-05-15T16:09:56.891Z,24.90
2023-05-15T16:12:35.787Z,16.30
2023-05-15T16:15:20.118Z,14.70
2023-05-15T16:17:54.982Z,15.60
2023-05-15T16:20:25.018Z,22.10
2023-05-15T16:22:53.157Z,14.10
2023-05-15T16:25:20.944Z,11.70
2023-05-15T16:27:48.627Z,12.20
2023-05-15T16:30:16.542Z,14.10
2023-05-15T16:32:44.267Z,15.00
2023-05-15T16:35:12.383Z,15.60
2023-05-15T16:37:40.057Z,18.80
2023-05-15T16:40:08.440Z,15.70
2023-05-15T16:42:38.244Z,14.90
2023-05-15T16:45:06.915Z,17.00
2023-05-15T16:47:36.583Z,17.90
2023-05-15T16:50:05.518Z,18.00
2023-05-15T16:52:33.137Z,16.70
2023-05-15T16:55:00.782Z,15.10
2023-05-15T16:57:28.293Z,16.70
2023-05-15T16:59:56.367Z,16.30
2023-05-15T17:02:24.018Z,14.30
2023-05-15T17:04:53.265Z,15.60
2023-05-15T17:07:21.088Z,24.90
2023-05-15T17:09:52.303Z,17.20
2023-05-15T17:12:19.788Z,60.20
2023-05-15T17:14:47.261Z,85.40
2023-05-15T17:17:14.825Z,33.40
2023-05-15T17:19:42.355Z,18.50
2023-05-15T17:22:09.918Z,18.20
2023-05-15T17:24:49.990Z,16.50
2023-05-15T17:27:19.296Z,15.30
2023-05-15T17:29:46.836Z,19.60
2023-05-15T17:32:15.836Z,16.60
2023-05-15T17:34:43.544Z,14.20
2023-05-15T17:37:11.235Z,16.30
2023-05-15T17:39:38.890Z,16.10
2023-05-15T17:42:06.498Z,13.90
2023-05-15T17:44:34.017Z,14.80
2023-05-15T17:47:03.051Z,15.40
2023-05-15T17:49:30.603Z,17.30
2023-05-15T17:51:58.422Z,16.10
2023-05-15T17:54:26.092Z,17.00
2023-05-15T17:56:53.599Z,15.40
2023-05-15T17:59:21.256Z,17.50
2023-05-15T18:01:48.927Z,18.60
2023-05-15T18:04:16.628Z,15.90
2023-05-15T18:06:44.378Z,19.30
2023-05-15T18:09:12.000Z,14.70
2023-05-15T18:11:39.558Z,17.10
2023-05-15T18:14:07.193Z,16.80
2023-05-15T18:16:34.775Z,20.50
2023-05-15T18:19:02.400Z,16.60
2023-05-15T18:21:29.874Z,17.20
2023-05-15T18:23:57.339Z,20.20
2023-05-15T18:26:25.743Z,19.70
2023-05-15T18:28:53.288Z,25.50
2023-05-15T18:31:20.899Z,16.20
2023-05-15T18:33:48.541Z,17.90
2023-05-15T18:36:16.221Z,17.90
2023-05-15T18:38:43.781Z,15.50
2023-05-15T18:41:11.274Z,14.50
2023-05-15T18:43:38.834Z,15.70
2023-05-15T18:46:06.467Z,14.60
2023-05-15T18:48:34.062Z,16.40
2023-05-15T18:51:02.304Z,19.80
2023-05-15T18:53:30.163Z,18.40
2023-05-15T18:55:57.763Z,16.20
2023-05-15T18:58:25.599Z,17.50
2023-05-15T19:00:53.345Z,17.70
2023-05-15T19:03:21.071Z,22.00
2023-05-15T19:05:48.757Z,19.30
2023-05-15T19:08:16.390Z,19.30
2023-05-15T19:10:48.289Z,18.70
2023-05-15T19:13:16.629Z,22.70
2023-05-15T19:15:52.238Z,20.20
2023-05-15T19:18:20.166Z,20.10
2023-05-15T19:20:52.368Z,20.80
2023-05-15T19:23:23.903Z,22.10
2023-05-15T19:25:51.486Z,23.10
2023-05-15T19:28:18.984Z,25.40
2023-05-15T19:30:46.644Z,24.70
2023-05-15T19:33:15.947Z,20.70
2023-05-15T19:35:44.824Z,20.40
2023-05-15T19:38:13.433Z,22.30
2023-05-15T19:40:44.344Z,24.40
2023-05-15T19:43:14.116Z,19.80
2023-05-15T19:45:42.193Z,21.40
2023-05-15T19:48:09.758Z,17.80
2023-05-15T19:50:40.619Z,21.40
2023-05-15T19:53:08.367Z,20.10
2023-05-15T19:55:36.107Z,21.20
2023-05-15T19:58:04.088Z,19.00
2023-05-15T20:00:32.307Z,23.00
2023-05-15T20:03:00.960Z,19.30
2023-05-15T20:05:29.073Z,21.80
2023-05-15T20:07:56.598Z,24.20
2023-05-15T20:10:24.701Z,21.00
2023-05-15T20:12:52.727Z,23.30
2023-05-15T20:15:20.237Z,63.70
2023-05-15T20:17:48.985Z,28.00
2023-05-15T20:20:16.620Z,26.70
2023-05-15T20:22:45.057Z,24.90
2023-05-15T20:25:12.646Z,59.40
2023-05-15T20:27:40.323Z,26.20
2023-05-15T20:30:08.603Z,40.90
2023-05-15T20:32:36.300Z,32.40
2023-05-15T20:35:04.313Z,18.50
2023-05-15T20:37:31.906Z,21.30
2023-05-15T20:40:00.004Z,27.60
2023-05-15T20:42:28.489Z,33.50
2023-05-15T20:44:56.166Z,20.60
2023-05-15T20:47:24.670Z,15.90
2023-05-15T20:49:52.253Z,16.40
2023-05-15T20:52:20.782Z,16.20
2023-05-15T20:54:51.074Z,16.10
2023-05-15T20:57:18.618Z,15.90
2023-05-15T20:59:46.302Z,20.30
2023-05-15T21:02:13.837Z,14.20
2023-05-15T21:04:41.594Z,15.60
2023-05-15T21:07:09.248Z,14.90
2023-05-15T21:09:36.786Z,15.20
2023-05-15T21:12:04.562Z,16.40
2023-05-15T21:14:32.122Z,14.40
2023-05-15T21:16:59.604Z,14.60
2023-05-15T21:19:27.216Z,20.20
2023-05-15T21:21:54.721Z,18.10
2023-05-15T21:24:22.257Z,23.40
2023-05-15T21:26:49.808Z,15.60
2023-05-15T21:29:17.280Z,15.80
2023-05-15T21:31:45.290Z,16.90
2023-05-15T21:34:12.838Z,20.60
2023-05-15T21:36:41.367Z,17.80
2023-05-15T21:39:09.471Z,16.90
2023-05-15T21:41:37.108Z,18.50
2023-05-15T21:44:04.815Z,15.70
2023-05-15T21:46:32.517Z,16.30
2023-05-15T21:49:01.773Z,18.60
2023-05-15T21:51:29.363Z,15.40
2023-05-15T21:53:58.373Z,15.50
2023-05-15T21:56:25.921Z,16.60
2023-05-15T21:58:53.551Z,16.40
2023-05-15T22:01:21.096Z,16.80
2023-05-15T22:03:48.849Z,15.10
2023-05-15T22:06:17.766Z,15.80
2023-05-15T22:08:45.318Z,15.40
2023-05-15T22:11:12.976Z,14.80
2023-05-15T22:13:40.704Z,16.50
2023-05-15T22:16:17.933Z,14.90
2023-05-15T22:18:47.493Z,13.70
2023-05-15T22:21:15.929Z,12.90
2023-05-15T22:23:43.394Z,13.70
2023-05-15T22:26:12.137Z,14.30
2023-05-15T22:28:39.602Z,14.20
2023-05-15T22:31:07.449Z,14.00
2023-05-15T22:33:35.054Z,13.60
2023-05-15T22:36:02.942Z,14.20
2023-05-15T22:38:30.449Z,16.80
2023-05-15T22:40:58.488Z,14.10
2023-05-15T22:43:26.065Z,14.40
2023-05-15T22:45:53.691Z,16.20
2023-05-15T22:48:22.651Z,15.20
2023-05-15T22:50:52.219Z,14.90
2023-05-15T22:53:19.757Z,15.40
2023-05-15T22:55:48.020Z,18.50
2023-05-15T22:58:16.279Z,15.10
2023-05-15T23:00:44.244Z,14.60
2023-05-15T23:03:11.963Z,13.30
2023-05-15T23:05:40.501Z,14.50
2023-05-15T23:08:08.062Z,13.00
2023-05-15T23:10:35.629Z,16.70
2023-05-15T23:13:04.208Z,16.10
2023-05-15T23:15:31.834Z,15.10
2023-05-15T23:17:59.417Z,15.30
2023-05-15T23:20:27.261Z,16.10
2023-05-15T23:22:55.261Z,15.90
2023-05-15T23:25:22.778Z,18.00
2023-05-15T23:27:50.443Z,17.60
2023-05-15T23:30:18.085Z,16.10
2023-05-15T23:32:45.829Z,17.60
2023-05-15T23:35:13.414Z,16.60
2023-05-15T23:37:41.064Z,21.00
2023-05-15T23:40:08.870Z,21.10
2023-05-15T23:42:36.351Z,20.40
2023-05-15T23:45:04.216Z,18.50
2023-05-15T23:47:31.756Z,23.50
2023-05-15T23:49:59.349Z,19.20
2023-05-15T23:52:27.143Z,18.00
2023-05-15T23:54:54.614Z,20.60
2023-05-15T23:57:22.433Z,20.20
2023-05-15T23:59:50.012Z,17.80
